Time;durP1;ratioP1;P1;durP2;ratioP2;P2;SDS_P1;SDS_P2;PMS_P1;PMS_P2;Temp;Humidity;BMP_temperature;BMP_pressure;BME280_temperature;BME280_humidity;BME280_pressure;Samples;Min_cycle;Max_cycle;Signal;HPM_P1;HPM_P2
2021/11/26 00:02:06;;;;;;;42.28;19.02;;;1.80;99.30;;;;;;5018878;28;20110;-68
2021/11/26 00:04:31;;;;;;;42.53;19.38;;;1.80;99.30;;;;;;5001872;28;20117;-67
2021/11/26 00:06:57;;;;;;;44.40;18.98;;;1.80;99.20;;;;;;5005198;28;20071;-67
2021/11/26 00:09:23;;;;;;;46.47;20.55;;;1.70;99.10;;;;;;5002087;28;20418;-67
2021/11/26 00:11:48;;;;;;;45.25;19.42;;;1.70;99.10;;;;;;5061462;28;20380;-67
2021/11/26 00:14:24;;;;;;;42.47;18.50;;;1.60;99.20;;;;;;5007146;28;20032;-67
2021/11/26 00:16:57;;;;;;;41.63;17.95;;;1.60;99.20;;;;;;5005363;28;20389;-67
2021/11/26 00:19:24;;;;;;;45.85;19.70;;;1.60;99.30;;;;;;5000086;28;20022;-67
2021/11/26 00:21:49;;;;;;;46.28;20.45;;;1.60;99.30;;;;;;5008824;28;20091;-67
2021/11/26 00:24:17;;;;;;;43.08;19.15;;;1.70;99.30;;;;;;5005879;28;20037;-67
2021/11/26 00:26:44;;;;;;;42.28;19.45;;;1.70;99.30;;;;;;5007383;28;20021;-68
2021/11/26 00:29:09;;;;;;;43.30;18.95;;;1.60;99.20;;;;;;5003228;28;20185;-67
2021/11/26 00:31:35;;;;;;;43.63;18.77;;;1.60;99.30;;;;;;5007110;28;20136;-67
2021/11/26 00:34:01;;;;;;;40.58;17.92;;;1.60;99.30;;;;;;5007020;28;20033;-67
2021/11/26 00:36:27;;;;;;;42.20;19.27;;;1.60;99.40;;;;;;5074441;28;20083;-67
2021/11/26 00:38:52;;;;;;;42.88;20.05;;;1.70;99.40;;;;;;5005904;28;20034;-67
2021/11/26 00:41:18;;;;;;;49.00;20.35;;;1.70;99.50;;;;;;5005613;28;20531;-67
2021/11/26 00:43:44;;;;;;;44.30;19.35;;;1.70;99.40;;;;;;5002417;28;20030;-67
2021/11/26 00:46:11;;;;;;;45.80;20.65;;;1.70;99.40;;;;;;4999849;28;20021;-67
2021/11/26 00:48:37;;;;;;;41.10;19.35;;;1.70;99.30;;;;;;5003489;28;20094;-67
2021/11/26 00:51:02;;;;;;;39.60;18.70;;;1.70;99.30;;;;;;4999921;28;20484;-67
2021/11/26 00:53:28;;;;;;;43.67;18.65;;;1.70;99.30;;;;;;5006674;28;20184;-67
2021/11/26 00:55:53;;;;;;;42.35;19.92;;;1.70;99.30;;;;;;5005131;28;20674;-67
2021/11/26 00:58:19;;;;;;;38.78;18.50;;;1.70;99.30;;;;;;5001948;28;20045;-67
2021/11/26 01:00:45;;;;;;;42.38;19.23;;;1.60;99.30;;;;;;5006225;28;20057;-67
2021/11/26 01:03:10;;;;;;;42.80;18.63;;;1.60;99.20;;;;;;5000720;28;20030;-67
2021/11/26 01:05:36;;;;;;;46.25;18.80;;;1.60;99.20;;;;;;5002520;28;20604;-67
2021/11/26 01:08:02;;;;;;;43.80;19.13;;;1.60;99.20;;;;;;4999731;28;20041;-67
2021/11/26 01:10:28;;;;;;;40.33;18.73;;;1.60;99.30;;;;;;5005147;28;20029;-67
2021/11/26 01:12:54;;;;;;;44.47;18.90;;;1.50;99.30;;;;;;5003203;28;20053;-67
2021/11/26 01:15:23;;;;;;;44.38;19.52;;;1.50;99.20;;;;;;4998657;28;20439;-67
2021/11/26 01:17:49;;;;;;;41.78;19.75;;;1.50;99.30;;;;;;4990321;28;20045;-67
2021/11/26 01:20:19;;;;;;;44.28;19.20;;;1.50;99.30;;;;;;4998731;28;20034;-67
2021/11/26 01:22:45;;;;;;;42.92;19.52;;;1.50;99.40;;;;;;4997447;28;20065;-67
2021/11/26 01:25:12;;;;;;;41.95;18.65;;;1.60;99.50;;;;;;5002387;28;20672;-67
2021/11/26 01:27:38;;;;;;;45.28;20.52;;;1.60;99.50;;;;;;5000307;28;20042;-67
2021/11/26 01:30:21;;;;;;;40.10;18.80;;;1.60;99.30;;;;;;5006348;28;20113;-67
2021/11/26 01:32:47;;;;;;;;;;;1.60;99.40;;;;;;5002073;28;20466;-67
2021/11/26 01:35:12;;;;;;;41.22;18.55;;;1.60;99.40;;;;;;5001027;28;19909;-67
2021/11/26 01:37:38;;;;;;;38.83;17.73;;;1.60;99.30;;;;;;5005454;28;20532;-67
2021/11/26 01:40:05;;;;;;;41.08;18.48;;;1.60;99.30;;;;;;5002403;28;20034;-68
2021/11/26 01:42:31;;;;;;;42.17;19.25;;;1.60;99.40;;;;;;5005679;28;20038;-67
2021/11/26 01:44:57;;;;;;;40.75;18.30;;;1.60;99.30;;;;;;5005487;28;20389;-67
2021/11/26 01:47:23;;;;;;;41.95;18.70;;;1.60;99.40;;;;;;5005092;28;20430;-67
2021/11/26 01:49:49;;;;;;;42.58;18.65;;;1.60;99.40;;;;;;5005530;28;20037;-67
2021/11/26 01:52:14;;;;;;;43.85;19.35;;;1.60;99.40;;;;;;4994045;28;20019;-67
2021/11/26 01:54:40;;;;;;;42.67;18.48;;;1.60;99.40;;;;;;4994172;28;20098;-67
2021/11/26 01:57:06;;;;;;;46.40;20.02;;;1.60;99.30;;;;;;4997030;28;20400;-67
2021/11/26 01:59:31;;;;;;;40.97;18.40;;;1.50;99.30;;;;;;4996116;28;20038;-67
2021/11/26 02:01:58;;;;;;;39.88;18.05;;;1.50;99.40;;;;;;4998699;28;20246;-67
2021/11/26 02:04:23;;;;;;;50.03;19.35;;;1.50;99.50;;;;;;5000535;28;20026;-67
2021/11/26 02:06:49;;;;;;;41.80;18.55;;;1.50;99.40;;;;;;5000698;28;20053;-67
2021/11/26 02:09:14;;;;;;;41.95;18.67;;;1.50;99.40;;;;;;4998476;28;20065;-67
2021/11/26 02:11:40;;;;;;;42.20;18.95;;;1.50;99.40;;;;;;5005914;28;20034;-67
2021/11/26 02:14:06;;;;;;;38.95;17.90;;;1.60;99.40;;;;;;4993511;28;20022;-67
2021/11/26 02:16:41;;;;;;;39.20;18.70;;;1.50;99.40;;;;;;4997946;28;20050;-67
2021/11/26 02:19:09;;;;;;;42.47;19.05;;;1.50;99.40;;;;;;4997574;28;20029;-67
2021/11/26 02:21:35;;;;;;;45.22;19.45;;;1.50;99.20;;;;;;5003777;28;20504;-67
2021/11/26 02:24:01;;;;;;;44.22;18.80;;;1.50;99.30;;;;;;5005968;28;20068;-67
2021/11/26 02:26:26;;;;;;;41.13;18.52;;;1.40;99.30;;;;;;4998988;28;20060;-67
2021/11/26 02:28:52;;;;;;;42.05;18.88;;;1.50;99.40;;;;;;4999296;28;20412;-67
2021/11/26 02:31:18;;;;;;;41.42;18.15;;;1.50;99.50;;;;;;4999335;28;20542;-67
2021/11/26 02:33:43;;;;;;;44.42;18.92;;;1.50;99.30;;;;;;4997368;28;20022;-67
2021/11/26 02:36:09;;;;;;;39.55;18.25;;;1.40;99.30;;;;;;4998257;28;20022;-67
2021/11/26 02:38:34;;;;;;;42.17;17.88;;;1.40;99.30;;;;;;4997270;28;20026;-67
2021/11/26 02:41:00;;;;;;;40.20;18.05;;;1.40;99.40;;;;;;4998453;28;20030;-67
2021/11/26 02:43:26;;;;;;;39.20;17.10;;;1.50;99.50;;;;;;4999331;28;20026;-67
2021/11/26 02:45:52;;;;;;;39.42;17.90;;;1.50;99.40;;;;;;4992993;28;20951;-67
2021/11/26 02:48:18;;;;;;;40.28;18.02;;;1.50;99.40;;;;;;4996336;28;20045;-67
2021/11/26 02:50:45;;;;;;;38.90;17.38;;;1.40;99.40;;;;;;4993284;28;20504;-67
2021/11/26 02:53:11;;;;;;;40.50;18.27;;;1.50;99.50;;;;;;4998757;28;20029;-67
2021/11/26 02:55:38;;;;;;;41.83;18.50;;;1.50;99.50;;;;;;5001715;28;20060;-67
2021/11/26 02:58:05;;;;;;;39.35;18.33;;;1.50;99.60;;;;;;4999660;28;20029;-67
2021/11/26 03:00:33;;;;;;;38.33;18.40;;;1.50;99.60;;;;;;5003906;28;20030;-67
2021/11/26 03:02:59;;;;;;;42.28;18.98;;;1.60;99.60;;;;;;5002889;28;20022;-67
2021/11/26 03:05:25;;;;;;;38.55;18.35;;;1.60;99.60;;;;;;5003180;28;20030;-67
2021/11/26 03:07:50;;;;;;;38.65;17.92;;;1.60;99.60;;;;;;5000283;28;20352;-67
2021/11/26 03:10:18;;;;;;;40.97;19.30;;;1.60;99.60;;;;;;5006947;28;20042;-67
2021/11/26 03:12:52;;;;;;;40.30;19.02;;;1.60;99.60;;;;;;5002240;28;20033;-67
2021/11/26 03:15:19;;;;;;;46.00;20.90;;;1.70;99.60;;;;;;5002539;28;20050;-67
2021/11/26 03:17:45;;;;;;;41.20;19.67;;;1.60;99.60;;;;;;5002702;28;20038;-67
2021/11/26 03:20:12;;;;;;;46.58;20.63;;;1.70;99.60;;;;;;5003036;28;20142;-67
2021/11/26 03:22:38;;;;;;;44.63;19.48;;;1.60;99.50;;;;;;5001763;28;20075;-67
2021/11/26 03:25:04;;;;;;;46.95;20.10;;;1.60;99.30;;;;;;4998670;28;20038;-67
2021/11/26 03:27:32;;;;;;;50.10;22.52;;;1.50;99.20;;;;;;5000008;28;20104;-67
2021/11/26 03:29:58;;;;;;;47.08;22.08;;;1.40;99.10;;;;;;4999927;28;20112;-67
2021/11/26 03:32:24;;;;;;;46.67;21.27;;;1.40;99.20;;;;;;4998221;28;20506;-67
2021/11/26 03:34:49;;;;;;;50.35;22.70;;;1.30;99.30;;;;;;4994975;28;20031;-67
2021/11/26 03:37:15;;;;;;;51.90;21.52;;;1.30;99.40;;;;;;5062173;28;20026;-67
2021/11/26 03:39:40;;;;;;;56.63;24.63;;;1.30;99.60;;;;;;4997706;28;20038;-67
2021/11/26 03:42:06;;;;;;;52.45;22.80;;;1.30;99.50;;;;;;4998653;28;20458;-67
2021/11/26 03:44:31;;;;;;;56.58;23.58;;;1.30;99.50;;;;;;4999481;28;20062;-67
2021/11/26 03:46:57;;;;;;;56.13;23.10;;;1.30;99.70;;;;;;4995280;28;20030;-66
2021/11/26 03:49:23;;;;;;;56.03;22.70;;;1.30;99.70;;;;;;5009156;28;20029;-67
2021/11/26 03:51:48;;;;;;;54.90;22.92;;;1.40;99.80;;;;;;5007983;28;20033;-67
2021/11/26 03:54:14;;;;;;;57.67;24.23;;;1.40;99.90;;;;;;5011305;28;20095;-67
2021/11/26 03:56:39;;;;;;;57.70;23.77;;;1.40;99.80;;;;;;5003740;28;20765;-67
2021/11/26 03:59:06;;;;;;;55.78;22.55;;;1.40;99.60;;;;;;5009925;28;20393;-67
2021/11/26 04:01:33;;;;;;;54.65;21.58;;;1.30;99.80;;;;;;5002961;28;20032;-67
2021/11/26 04:03:59;;;;;;;57.42;23.45;;;1.30;99.80;;;;;;5004153;28;20036;-67
2021/11/26 04:06:25;;;;;;;58.25;23.67;;;1.40;99.80;;;;;;5003099;28;20033;-67
2021/11/26 04:08:50;;;;;;;55.95;22.20;;;1.30;99.80;;;;;;5070896;22;20362;-68
2021/11/26 04:11:16;;;;;;;57.90;24.08;;;1.30;99.70;;;;;;4997509;28;20086;-68
2021/11/26 04:13:41;;;;;;;58.88;23.25;;;1.20;99.80;;;;;;5009752;28;20495;-68
2021/11/26 04:16:12;;;;;;;51.95;23.20;;;1.20;99.80;;;;;;4994418;28;20126;-68
2021/11/26 04:18:39;;;;;;;54.10;23.65;;;1.20;99.70;;;;;;4994561;28;20066;-68
2021/11/26 04:21:04;;;;;;;59.03;24.38;;;1.10;99.90;;;;;;4989457;28;20536;-68
2021/11/26 04:23:31;;;;;;;63.47;24.25;;;1.10;99.90;;;;;;4982095;28;20030;-68
2021/11/26 04:25:57;;;;;;;58.63;25.60;;;1.10;99.90;;;;;;4983314;28;20034;-68
2021/11/26 04:28:23;;;;;;;65.50;25.92;;;1.10;99.90;;;;;;4984867;28;20073;-68
2021/11/26 04:30:49;;;;;;;60.75;23.52;;;1.10;99.90;;;;;;5007697;28;20024;-68
2021/11/26 04:33:15;;;;;;;69.70;26.55;;;1.10;99.90;;;;;;4982498;28;20049;-68
2021/11/26 04:35:40;;;;;;;63.90;25.52;;;1.10;99.90;;;;;;4985919;28;20034;-68
2021/11/26 04:38:06;;;;;;;61.17;25.50;;;1.10;99.90;;;;;;4988784;28;20367;-67
2021/11/26 04:40:32;;;;;;;60.00;24.15;;;1.10;99.90;;;;;;4990571;28;20455;-69
2021/11/26 04:42:57;;;;;;;63.40;24.70;;;1.10;99.90;;;;;;4981382;28;20045;-68
2021/11/26 04:45:23;;;;;;;61.50;24.23;;;1.00;99.90;;;;;;4983617;28;20034;-68
2021/11/26 04:47:48;;;;;;;63.58;23.00;;;1.10;99.90;;;;;;5011630;28;20095;-69
2021/11/26 04:50:16;;;;;;;68.32;24.48;;;1.10;99.90;;;;;;4986397;28;20168;-68
2021/11/26 04:52:42;;;;;;;58.47;23.58;;;1.10;99.90;;;;;;4991522;28;20022;-68
2021/11/26 04:55:10;;;;;;;65.68;25.35;;;1.10;99.90;;;;;;4988740;28;20018;-68
2021/11/26 04:57:36;;;;;;;62.78;24.15;;;1.10;99.90;;;;;;4997880;28;20390;-68
2021/11/26 05:00:05;;;;;;;67.22;24.40;;;1.10;99.90;;;;;;4982191;28;20030;-68
2021/11/26 05:02:31;;;;;;;62.67;25.10;;;1.20;99.90;;;;;;4986204;28;20540;-68
2021/11/26 05:04:56;;;;;;;65.25;25.27;;;1.10;99.90;;;;;;4989425;28;20022;-68
2021/11/26 05:07:23;;;;;;;69.18;25.15;;;1.10;99.90;;;;;;4968174;28;20137;-68
2021/11/26 05:09:49;;;;;;;64.32;25.35;;;1.10;99.90;;;;;;5002193;28;20035;-68
2021/11/26 05:12:15;;;;;;;62.85;24.10;;;1.10;99.90;;;;;;4985363;28;20026;-68
2021/11/26 05:14:40;;;;;;;61.80;25.38;;;1.00;99.90;;;;;;4985829;28;20450;-68
2021/11/26 05:17:06;;;;;;;66.50;25.75;;;1.00;99.90;;;;;;4974268;28;20029;-68
2021/11/26 05:19:32;;;;;;;63.28;25.02;;;1.00;99.90;;;;;;4995668;28;20048;-68
2021/11/26 05:21:57;;;;;;;64.95;26.15;;;1.00;99.90;;;;;;4992623;28;20540;-67
2021/11/26 05:24:23;;;;;;;70.40;25.15;;;1.00;99.90;;;;;;4984560;28;20504;-68
2021/11/26 05:26:49;;;;;;;69.13;25.63;;;1.00;99.90;;;;;;4990194;28;20497;-68
2021/11/26 05:29:14;;;;;;;65.90;24.88;;;1.00;99.90;;;;;;4988286;28;20084;-69
2021/11/26 05:31:40;;;;;;;63.45;25.15;;;1.10;99.90;;;;;;5020240;28;20441;-68
2021/11/26 05:34:08;;;;;;;63.80;25.42;;;1.10;99.90;;;;;;4988487;28;20034;-68
2021/11/26 05:36:35;;;;;;;71.90;25.90;;;1.10;99.90;;;;;;4998875;28;20072;-68
2021/11/26 05:39:03;;;;;;;67.45;26.33;;;1.10;99.90;;;;;;4980369;28;20535;-68
2021/11/26 05:41:29;;;;;;;68.00;25.52;;;1.10;99.90;;;;;;4983709;28;20084;-68
2021/11/26 05:43:54;;;;;;;67.15;25.35;;;1.10;99.90;;;;;;4970565;28;20034;-68
2021/11/26 05:46:20;;;;;;;69.82;26.88;;;1.10;99.90;;;;;;4986167;28;20070;-68
2021/11/26 05:48:46;;;;;;;60.60;25.30;;;1.10;99.90;;;;;;4986603;28;20088;-68
2021/11/26 05:51:11;;;;;;;61.13;25.42;;;1.20;99.90;;;;;;4978561;28;20068;-69
2021/11/26 05:53:37;;;;;;;64.55;25.50;;;1.20;99.90;;;;;;4981610;28;20026;-68
2021/11/26 05:56:03;;;;;;;58.20;24.58;;;1.20;99.90;;;;;;4985774;28;20023;-67
2021/11/26 05:58:29;;;;;;;61.13;24.17;;;1.30;99.90;;;;;;4987340;28;20038;-68
2021/11/26 06:00:55;;;;;;;64.03;25.45;;;1.30;99.90;;;;;;4990559;28;20412;-68
2021/11/26 06:03:21;;;;;;;64.18;24.80;;;1.30;99.90;;;;;;4999499;28;20053;-68
2021/11/26 06:05:47;;;;;;;62.72;25.17;;;1.30;99.90;;;;;;4992126;28;20034;-68
2021/11/26 06:08:13;;;;;;;61.05;24.92;;;1.30;99.90;;;;;;4961914;28;20031;-68
2021/11/26 06:10:39;;;;;;;57.28;23.23;;;1.30;99.90;;;;;;5017935;28;20045;-69
2021/11/26 06:13:04;;;;;;;63.25;25.08;;;1.30;99.90;;;;;;4978768;28;20521;-69
2021/11/26 06:15:30;;;;;;;62.85;24.52;;;1.30;99.90;;;;;;4986351;28;20076;-69
2021/11/26 06:17:56;;;;;;;62.42;25.25;;;1.40;99.90;;;;;;4982230;28;20041;-68
2021/11/26 06:20:22;;;;;;;54.45;24.40;;;1.40;99.90;;;;;;4982871;28;20044;-68
2021/11/26 06:22:49;;;;;;;58.55;24.02;;;1.40;99.90;;;;;;4977658;28;20137;-68
2021/11/26 06:25:18;;;;;;;55.60;23.67;;;1.40;99.90;;;;;;4987514;28;20520;-68
2021/11/26 06:27:46;;;;;;;58.53;24.30;;;1.40;99.90;;;;;;4980107;28;20030;-68
2021/11/26 06:30:13;;;;;;;58.95;24.85;;;1.40;99.90;;;;;;4988297;28;20478;-68
2021/11/26 06:32:40;;;;;;;63.38;26.17;;;1.40;99.90;;;;;;4983509;28;20034;-68
2021/11/26 06:35:07;;;;;;;60.10;25.95;;;1.40;99.90;;;;;;4979889;28;20104;-68
2021/11/26 06:37:33;;;;;;;58.70;25.58;;;1.40;99.90;;;;;;4979852;28;20536;-68
2021/11/26 06:39:59;;;;;;;60.92;25.65;;;1.40;99.90;;;;;;4997929;28;20019;-68
2021/11/26 06:42:25;;;;;;;61.25;25.25;;;1.40;99.90;;;;;;4986483;28;20147;-69
2021/11/26 06:44:52;;;;;;;53.72;23.80;;;1.40;99.90;;;;;;4984163;28;20124;-68
2021/11/26 06:47:18;;;;;;;59.13;24.75;;;1.40;99.90;;;;;;4981491;28;20460;-69
2021/11/26 06:49:44;;;;;;;62.40;25.42;;;1.40;99.90;;;;;;4983571;28;20026;-68
2021/11/26 06:52:09;;;;;;;61.25;25.63;;;1.40;99.90;;;;;;4972473;28;20599;-68
2021/11/26 06:54:35;;;;;;;55.45;24.15;;;1.40;99.90;;;;;;4987056;28;20036;-69
2021/11/26 06:57:01;;;;;;;58.83;25.55;;;1.40;99.90;;;;;;4982705;28;20026;-68
2021/11/26 06:59:26;;;;;;;57.35;24.40;;;1.40;99.90;;;;;;4981695;28;20065;-68
2021/11/26 07:01:52;;;;;;;53.03;23.92;;;1.40;99.90;;;;;;4973053;28;20034;-68
2021/11/26 07:04:18;;;;;;;60.88;25.70;;;1.40;99.90;;;;;;4983677;28;20103;-68
2021/11/26 07:06:44;;;;;;;56.85;23.63;;;1.40;99.90;;;;;;4990753;28;20034;-69
2021/11/26 07:09:09;;;;;;;50.90;22.35;;;1.40;99.90;;;;;;4981531;28;20031;-69
2021/11/26 07:11:35;;;;;;;65.78;25.95;;;1.40;99.90;;;;;;4991165;28;20076;-69
2021/11/26 07:14:02;;;;;;;63.47;26.75;;;1.40;99.90;;;;;;5000611;28;20022;-68
2021/11/26 07:16:27;;;;;;;57.50;24.77;;;1.40;99.90;;;;;;4992612;28;20026;-67
2021/11/26 07:18:53;;;;;;;58.35;23.58;;;1.40;99.90;;;;;;4996579;28;20041;-68
2021/11/26 07:21:19;;;;;;;58.05;23.83;;;1.40;99.90;;;;;;4988316;28;20058;-68
2021/11/26 07:23:44;;;;;;;64.72;30.50;;;1.40;99.90;;;;;;4992096;28;20497;-68
2021/11/26 07:26:11;;;;;;;54.83;24.05;;;1.40;99.90;;;;;;4991235;28;20065;-68
2021/11/26 07:28:37;;;;;;;48.33;21.35;;;1.40;99.90;;;;;;4993651;28;20084;-68
2021/11/26 07:31:02;;;;;;;46.20;22.83;;;1.40;99.90;;;;;;4969921;28;20022;-69
2021/11/26 07:33:28;;;;;;;45.55;20.27;;;1.40;99.90;;;;;;5005896;28;20034;-68
2021/11/26 07:35:53;;;;;;;44.95;20.13;;;1.40;99.90;;;;;;4988028;28;20027;-69
2021/11/26 07:38:19;;;;;;;43.03;21.08;;;1.30;99.90;;;;;;4987064;28;20035;-69
2021/11/26 07:40:45;;;;;;;41.90;20.73;;;1.30;99.90;;;;;;4991488;28;20092;-68
2021/11/26 07:43:10;;;;;;;47.30;20.92;;;1.40;99.90;;;;;;4987496;28;20081;-68
2021/11/26 07:45:36;;;;;;;50.05;21.77;;;1.30;99.90;;;;;;4987276;28;20393;-68
2021/11/26 07:48:02;;;;;;;48.20;20.92;;;1.30;99.90;;;;;;4986910;28;20393;-68
2021/11/26 07:50:28;;;;;;;51.17;22.90;;;1.30;99.90;;;;;;5000972;28;20031;-68
2021/11/26 07:52:54;;;;;;;57.38;23.45;;;1.30;99.90;;;;;;4969059;28;20037;-69
2021/11/26 07:55:20;;;;;;;52.15;23.38;;;1.30;99.90;;;;;;4980905;28;20374;-68
2021/11/26 07:57:46;;;;;;;58.80;23.75;;;1.30;99.90;;;;;;4989512;28;20123;-68
2021/11/26 08:00:13;;;;;;;54.85;23.50;;;1.30;99.90;;;;;;4986065;28;20034;-68
2021/11/26 08:02:39;;;;;;;56.60;23.52;;;1.30;99.90;;;;;;4968613;28;20487;-68
2021/11/26 08:05:05;;;;;;;51.90;22.80;;;1.40;99.90;;;;;;4958378;28;20030;-68
2021/11/26 08:07:30;;;;;;;59.85;24.38;;;1.30;99.90;;;;;;4984919;28;20117;-69
2021/11/26 08:09:56;;;;;;;50.45;23.38;;;1.40;99.90;;;;;;4998105;28;20114;-68
2021/11/26 08:12:22;;;;;;;51.78;23.67;;;1.40;99.90;;;;;;4969353;28;20070;-67
2021/11/26 08:14:50;;;;;;;52.67;23.05;;;1.40;99.90;;;;;;4995732;28;20107;-67
2021/11/26 08:17:16;;;;;;;59.85;23.15;;;1.40;99.90;;;;;;4982341;28;20049;-67
2021/11/26 08:19:42;;;;;;;55.42;24.48;;;1.40;99.90;;;;;;4972590;28;20054;-68
2021/11/26 08:22:08;;;;;;;59.63;25.60;;;1.40;99.90;;;;;;4982022;28;20436;-68
2021/11/26 08:24:33;;;;;;;51.03;23.67;;;1.40;99.90;;;;;;4971840;28;20030;-68
2021/11/26 08:26:59;;;;;;;56.80;23.75;;;1.40;99.90;;;;;;5013491;28;20079;-67
2021/11/26 08:29:25;;;;;;;60.72;25.83;;;1.40;99.90;;;;;;5008824;28;20075;-68
2021/11/26 08:31:51;;;;;;;57.35;24.20;;;1.40;99.90;;;;;;4992103;28;20487;-68
2021/11/26 08:34:17;;;;;;;58.72;25.88;;;1.40;99.90;;;;;;4983568;28;20019;-69
2021/11/26 08:36:43;;;;;;;60.67;25.17;;;1.40;99.90;;;;;;4994098;28;20019;-69
2021/11/26 08:39:09;;;;;;;77.63;32.22;;;1.40;99.90;;;;;;5010118;28;20080;-69
2021/11/26 08:41:35;;;;;;;66.70;28.98;;;1.50;99.90;;;;;;4987135;28;20039;-68
2021/11/26 08:44:02;;;;;;;66.07;27.70;;;1.50;99.90;;;;;;4968381;28;20062;-68
2021/11/26 08:46:27;;;;;;;68.13;28.77;;;1.50;99.90;;;;;;5056743;28;20487;-68
2021/11/26 08:48:53;;;;;;;76.03;29.58;;;1.50;99.90;;;;;;4967946;28;20038;-69
2021/11/26 08:51:20;;;;;;;67.85;28.65;;;1.50;99.90;;;;;;4973290;28;20019;-68
2021/11/26 08:53:47;;;;;;;71.63;29.40;;;1.50;99.90;;;;;;4966409;28;20105;-68
2021/11/26 08:56:14;;;;;;;71.20;29.88;;;1.50;99.90;;;;;;4996090;28;20075;-68
2021/11/26 08:58:40;;;;;;;64.50;26.90;;;1.50;99.90;;;;;;4961164;28;20372;-68
2021/11/26 09:01:07;;;;;;;68.93;27.90;;;1.50;99.90;;;;;;4986812;28;20025;-68
2021/11/26 09:03:33;;;;;;;63.67;27.40;;;1.50;99.90;;;;;;4968830;28;20038;-68
2021/11/26 09:06:00;;;;;;;74.55;29.15;;;1.50;99.90;;;;;;4983511;28;20031;-68
2021/11/26 09:08:26;;;;;;;70.85;29.10;;;1.50;99.90;;;;;;4980764;28;20099;-68
2021/11/26 09:10:51;;;;;;;71.30;30.27;;;1.60;99.90;;;;;;4989375;28;20025;-70
2021/11/26 09:13:18;;;;;;;54.80;24.98;;;1.60;99.90;;;;;;5010267;28;20386;-69
2021/11/26 09:15:44;;;;;;;79.20;29.60;;;1.60;99.90;;;;;;4991268;28;20027;-68
2021/11/26 09:18:11;;;;;;;63.63;26.33;;;1.60;99.90;;;;;;4977783;28;20058;-69
2021/11/26 09:20:38;;;;;;;63.45;25.90;;;1.60;99.90;;;;;;4979634;28;20048;-68
2021/11/26 09:23:06;;;;;;;68.43;27.10;;;1.60;99.90;;;;;;4995100;28;20363;-68
2021/11/26 09:25:32;;;;;;;63.78;24.85;;;1.60;99.90;;;;;;4992108;28;20039;-67
2021/11/26 09:27:58;;;;;;;58.22;24.85;;;1.60;99.90;;;;;;4987758;28;20034;-68
2021/11/26 09:30:26;;;;;;;73.53;27.10;;;1.60;99.90;;;;;;4985812;28;20113;-68
2021/11/26 09:32:53;;;;;;;67.35;26.90;;;1.60;99.90;;;;;;4972580;28;20109;-68
2021/11/26 09:35:19;;;;;;;66.65;27.77;;;1.60;99.90;;;;;;4971505;28;20026;-67
2021/11/26 09:37:45;;;;;;;73.07;30.15;;;1.70;99.90;;;;;;4987383;28;20030;-68
2021/11/26 09:40:12;;;;;;;65.20;28.42;;;1.70;99.90;;;;;;5006974;28;20474;-69
2021/11/26 09:42:42;;;;;;;68.43;27.88;;;1.70;99.90;;;;;;4988657;28;20438;-70
2021/11/26 09:45:09;;;;;;;89.20;32.08;;;1.60;99.90;;;;;;4977483;28;20110;-70
2021/11/26 09:47:35;;;;;;;76.88;29.25;;;1.70;99.90;;;;;;4957938;28;20031;-69
2021/11/26 09:50:01;;;;;;;84.35;32.85;;;1.60;99.90;;;;;;4982830;28;20026;-68
2021/11/26 09:52:26;;;;;;;76.68;29.33;;;1.70;99.90;;;;;;4982936;28;20417;-69
2021/11/26 09:54:52;;;;;;;87.63;34.22;;;1.70;99.90;;;;;;4987982;28;20380;-69
2021/11/26 09:57:18;;;;;;;76.38;32.08;;;1.70;99.90;;;;;;4971734;28;20086;-69
2021/11/26 09:59:45;;;;;;;74.32;28.60;;;1.70;99.90;;;;;;5003294;28;20037;-68
2021/11/26 10:02:24;;;;;;;73.03;28.75;;;1.70;99.90;;;;;;4971292;28;20026;-69
2021/11/26 10:05:01;;;;;;;67.13;26.92;;;1.70;99.90;;;;;;4989104;28;20030;-69
2021/11/26 10:07:27;;;;;;;74.95;26.83;;;1.70;99.90;;;;;;4981831;28;20031;-69
2021/11/26 10:09:54;;;;;;;69.43;24.48;;;1.60;99.90;;;;;;4980220;28;20026;-69
2021/11/26 10:12:20;;;;;;;70.70;27.98;;;1.60;99.90;;;;;;4986130;28;20083;-69
2021/11/26 10:14:47;;;;;;;65.97;26.65;;;1.60;99.90;;;;;;4987407;28;20030;-68
2021/11/26 10:17:19;;;;;;;67.50;27.65;;;1.60;99.90;;;;;;4987847;28;20496;-69
2021/11/26 10:19:46;;;;;;;73.32;28.08;;;1.60;99.90;;;;;;4983736;28;20414;-70
2021/11/26 10:22:17;;;;;;;68.80;26.35;;;1.70;99.90;;;;;;4984335;28;20471;-69
2021/11/26 10:24:43;;;;;;;73.28;28.17;;;1.70;99.90;;;;;;4989103;28;20030;-68
2021/11/26 10:27:09;;;;;;;68.20;28.48;;;1.70;99.90;;;;;;5012185;28;20103;-69
2021/11/26 10:29:37;;;;;;;69.88;28.48;;;1.70;99.90;;;;;;5034204;28;20038;-68
2021/11/26 10:32:11;;;;;;;65.38;25.83;;;1.70;99.90;;;;;;4956678;28;20119;-69
2021/11/26 10:34:39;;;;;;;61.28;26.02;;;1.70;99.90;;;;;;4980818;28;20031;-69
2021/11/26 10:37:06;;;;;;;61.50;26.23;;;1.70;99.90;;;;;;4986967;28;20064;-67
2021/11/26 10:39:34;;;;;;;62.58;25.73;;;1.70;99.90;;;;;;5017565;28;20073;-68
2021/11/26 10:42:00;;;;;;;64.88;26.27;;;1.70;99.90;;;;;;4985865;28;20037;-68
2021/11/26 10:44:48;;;;;;;60.05;25.58;;;1.80;99.90;;;;;;4971595;28;20022;-67
2021/11/26 10:47:18;;;;;;;61.78;24.67;;;1.80;99.90;;;;;;4980338;28;20061;-68
2021/11/26 10:49:49;;;;;;;59.25;24.98;;;1.70;99.90;;;;;;4955126;28;20044;-68
2021/11/26 10:52:24;;;;;;;61.25;25.30;;;1.80;99.90;;;;;;4986381;28;20026;-68
2021/11/26 11:00:10;;;;;;;59.58;24.00;;;1.80;99.90;;;;;;4988010;28;20050;-68
2021/11/26 11:02:39;;;;;;;60.58;24.75;;;1.80;99.90;;;;;;4979468;28;20509;-70
2021/11/26 11:05:20;;;;;;;61.03;24.08;;;1.80;99.90;;;;;;4977610;28;20075;-69
2021/11/26 11:07:46;;;;;;;57.58;24.15;;;1.80;99.90;;;;;;4988029;28;20049;-68
2021/11/26 11:10:23;;;;;;;62.50;25.23;;;1.80;99.90;;;;;;5000843;28;20037;-69
2021/11/26 11:12:48;;;;;;;53.53;23.40;;;1.80;99.90;;;;;;4969631;28;20144;-68
2021/11/26 11:15:14;;;;;;;59.90;25.25;;;1.90;99.90;;;;;;4968586;28;20125;-68
2021/11/26 11:17:40;;;;;;;56.10;24.88;;;1.90;99.90;;;;;;4982213;28;20031;-69
2021/11/26 11:20:10;;;;;;;64.63;26.33;;;1.90;99.90;;;;;;4985708;28;20095;-68
2021/11/26 11:22:36;;;;;;;63.10;27.08;;;1.90;99.90;;;;;;4969690;28;20030;-68
2021/11/26 11:25:03;;;;;;;65.95;28.80;;;1.90;99.90;;;;;;4982024;28;20101;-68
2021/11/26 11:27:30;;;;;;;63.30;28.02;;;2.00;99.90;;;;;;4981240;28;20423;-68
2021/11/26 11:29:55;;;;;;;62.80;27.52;;;2.00;99.90;;;;;;4988015;28;20030;-68
2021/11/26 11:32:21;;;;;;;60.70;26.30;;;2.00;99.90;;;;;;4990711;28;20101;-69
2021/11/26 11:34:47;;;;;;;64.78;28.38;;;2.00;99.90;;;;;;4964210;28;20034;-69
2021/11/26 11:37:18;;;;;;;61.08;25.15;;;2.00;99.90;;;;;;4955272;28;20444;-69
2021/11/26 11:39:45;;;;;;;55.75;24.23;;;2.00;99.90;;;;;;4983583;28;20035;-69
2021/11/26 11:42:10;;;;;;;61.00;26.08;;;2.00;99.90;;;;;;5007405;28;20032;-68
2021/11/26 11:44:38;;;;;;;61.22;25.17;;;2.00;99.90;;;;;;5031995;28;20395;-69
2021/11/26 11:47:17;;;;;;;63.58;26.80;;;2.00;99.90;;;;;;4982760;28;20035;-68
2021/11/26 11:49:43;;;;;;;60.92;25.20;;;2.00;99.90;;;;;;4990660;28;20026;-68
2021/11/26 11:52:11;;;;;;;57.40;24.65;;;2.00;99.90;;;;;;4979476;28;20029;-68
2021/11/26 11:54:45;;;;;;;55.25;24.55;;;1.90;99.90;;;;;;4982806;28;20065;-69
2021/11/26 11:57:28;;;;;;;57.83;24.65;;;2.00;99.90;;;;;;4963207;28;20023;-67
2021/11/26 12:00:17;;;;;;;55.20;22.88;;;2.00;99.90;;;;;;4973375;28;20045;-68
2021/11/26 12:02:44;;;;;;;50.55;22.55;;;2.00;99.90;;;;;;4984142;28;20023;-67
2021/11/26 12:05:39;;;;;;;57.15;24.05;;;2.00;99.90;;;;;;4980319;28;20026;-68
2021/11/26 12:08:14;;;;;;;53.60;21.65;;;2.00;99.90;;;;;;4962475;28;20043;-68
2021/11/26 12:10:46;;;;;;;65.45;27.83;;;2.00;99.90;;;;;;5025841;28;20107;-69
2021/11/26 12:13:24;;;;;;;;;;;2.00;99.90;;;;;;4992058;28;20022;-69
2021/11/26 12:15:51;;;;;;;47.75;21.20;;;2.10;99.90;;;;;;4988556;28;20293;-70
2021/11/26 12:18:17;;;;;;;48.17;21.92;;;2.10;99.90;;;;;;4970632;28;20027;-68
2021/11/26 12:20:47;;;;;;;48.55;19.95;;;2.10;99.90;;;;;;4977529;28;20037;-68
2021/11/26 12:23:25;;;;;;;48.08;19.98;;;2.00;99.90;;;;;;4991315;28;20056;-68
2021/11/26 12:28:50;;;;;;;46.53;20.73;;;2.10;99.90;;;;;;5007796;28;20030;-68
2021/11/26 12:31:19;;;;;;;58.50;24.40;;;2.10;99.90;;;;;;4974253;28;20058;-69
2021/11/26 12:33:55;;;;;;;51.80;20.90;;;2.00;99.90;;;;;;5027860;28;20278;-69
2021/11/26 12:36:21;;;;;;;50.60;21.45;;;2.00;99.90;;;;;;4980888;28;20069;-67
2021/11/26 12:38:52;;;;;;;49.83;22.95;;;2.00;99.90;;;;;;4989959;28;20421;-67
2021/11/26 12:41:35;;;;;;;50.40;21.63;;;1.90;99.90;;;;;;5015155;28;20022;-68
2021/11/26 12:44:02;;;;;;;54.28;22.83;;;1.90;99.90;;;;;;4990986;28;20496;-68
2021/11/26 12:46:38;;;;;;;54.03;21.30;;;2.00;99.90;;;;;;5038812;28;20077;-68